Terminal Aerodrome Forecast
Issued by NWS Duluth, MN

Home | Current Version | Previous Version | Text Only | Print | Product List | Glossary On
Versions: 1 2 3 4 5 6 7 8 9 10 11 12 13 14 15 16 17 18 19 20 21
215
FTUS43 KDLH 011905 AAA
TAFDLH
TAF AMD
KDLH 011905Z 0119/0218 09012KT P6SM SCT025
     FM012100 09010KT P6SM SKC
     FM020300 VRB03KT P6SM SKC
     FM021400 27010KT P6SM SCT050=

USA.gov is the U.S. government's official web portal to all federal, state and local government web resources and services.